sensor_id;sensor_type;location;lat;lon;timestamp;P1;durP1;ratioP1;P2;durP2;ratioP2
61617;SDS011;47518;51.776;9.370;2022-12-11T00:01:54;24.27;;;12.00;;
61617;SDS011;47518;51.776;9.370;2022-12-11T00:04:19;23.05;;;12.82;;
61617;SDS011;47518;51.776;9.370;2022-12-11T00:06:44;23.25;;;12.15;;
61617;SDS011;47518;51.776;9.370;2022-12-11T00:09:10;23.02;;;12.15;;
61617;SDS011;47518;51.776;9.370;2022-12-11T00:11:35;22.08;;;12.18;;
61617;SDS011;47518;51.776;9.370;2022-12-11T00:14:00;23.70;;;12.45;;
61617;SDS011;47518;51.776;9.370;2022-12-11T00:16:26;22.77;;;12.45;;
61617;SDS011;47518;51.776;9.370;2022-12-11T00:18:51;25.08;;;12.82;;
61617;SDS011;47518;51.776;9.370;2022-12-11T00:21:16;21.20;;;12.25;;
61617;SDS011;47518;51.776;9.370;2022-12-11T00:23:42;24.65;;;13.38;;
61617;SDS011;47518;51.776;9.370;2022-12-11T00:26:08;24.30;;;13.48;;
61617;SDS011;47518;51.776;9.370;2022-12-11T00:28:36;22.02;;;12.32;;
61617;SDS011;47518;51.776;9.370;2022-12-11T00:31:03;25.58;;;13.32;;
61617;SDS011;47518;51.776;9.370;2022-12-11T00:33:29;25.95;;;13.60;;
61617;SDS011;47518;51.776;9.370;2022-12-11T00:35:54;26.15;;;14.15;;
61617;SDS011;47518;51.776;9.370;2022-12-11T00:38:20;24.75;;;13.45;;
61617;SDS011;47518;51.776;9.370;2022-12-11T00:40:46;23.77;;;12.48;;
61617;SDS011;47518;51.776;9.370;2022-12-11T00:43:12;25.00;;;13.55;;
61617;SDS011;47518;51.776;9.370;2022-12-11T00:45:42;26.45;;;13.73;;
61617;SDS011;47518;51.776;9.370;2022-12-11T00:48:09;26.45;;;14.15;;
61617;SDS011;47518;51.776;9.370;2022-12-11T00:50:35;24.55;;;13.13;;
61617;SDS011;47518;51.776;9.370;2022-12-11T00:53:02;26.85;;;13.80;;
61617;SDS011;47518;51.776;9.370;2022-12-11T00:55:28;23.77;;;12.82;;
61617;SDS011;47518;51.776;9.370;2022-12-11T00:57:54;25.88;;;13.75;;
61617;SDS011;47518;51.776;9.370;2022-12-11T01:00:20;26.80;;;14.25;;
61617;SDS011;47518;51.776;9.370;2022-12-11T01:02:46;26.25;;;14.07;;
61617;SDS011;47518;51.776;9.370;2022-12-11T01:05:12;28.25;;;14.63;;
61617;SDS011;47518;51.776;9.370;2022-12-11T01:07:38;27.33;;;14.23;;
61617;SDS011;47518;51.776;9.370;2022-12-11T01:10:03;31.20;;;15.70;;
61617;SDS011;47518;51.776;9.370;2022-12-11T01:12:52;30.63;;;15.85;;
61617;SDS011;47518;51.776;9.370;2022-12-11T01:15:28;25.75;;;13.60;;
61617;SDS011;47518;51.776;9.370;2022-12-11T01:17:56;29.17;;;14.63;;
61617;SDS011;47518;51.776;9.370;2022-12-11T01:20:22;27.50;;;14.90;;
61617;SDS011;47518;51.776;9.370;2022-12-11T01:22:51;26.30;;;13.57;;
61617;SDS011;47518;51.776;9.370;2022-12-11T01:25:17;27.63;;;14.10;;
61617;SDS011;47518;51.776;9.370;2022-12-11T01:27:43;29.40;;;14.55;;
61617;SDS011;47518;51.776;9.370;2022-12-11T01:30:08;29.13;;;14.43;;
61617;SDS011;47518;51.776;9.370;2022-12-11T01:32:34;27.70;;;14.63;;
61617;SDS011;47518;51.776;9.370;2022-12-11T01:35:01;29.85;;;15.25;;
61617;SDS011;47518;51.776;9.370;2022-12-11T01:37:28;28.75;;;15.45;;
61617;SDS011;47518;51.776;9.370;2022-12-11T01:39:53;28.75;;;15.57;;
61617;SDS011;47518;51.776;9.370;2022-12-11T01:42:19;30.90;;;16.33;;
61617;SDS011;47518;51.776;9.370;2022-12-11T01:47:26;32.72;;;16.92;;
61617;SDS011;47518;51.776;9.370;2022-12-11T01:49:51;31.63;;;16.15;;
61617;SDS011;47518;51.776;9.370;2022-12-11T01:52:19;33.78;;;16.88;;
61617;SDS011;47518;51.776;9.370;2022-12-11T01:54:46;32.15;;;16.88;;
61617;SDS011;47518;51.776;9.370;2022-12-11T01:57:12;35.30;;;16.60;;
61617;SDS011;47518;51.776;9.370;2022-12-11T01:59:40;32.40;;;16.60;;
61617;SDS011;47518;51.776;9.370;2022-12-11T02:02:09;32.65;;;16.88;;
61617;SDS011;47518;51.776;9.370;2022-12-11T02:04:54;36.05;;;17.40;;
61617;SDS011;47518;51.776;9.370;2022-12-11T02:07:20;35.00;;;17.95;;
61617;SDS011;47518;51.776;9.370;2022-12-11T02:09:45;35.80;;;17.42;;
61617;SDS011;47518;51.776;9.370;2022-12-11T02:12:19;35.92;;;18.00;;
61617;SDS011;47518;51.776;9.370;2022-12-11T02:14:59;35.28;;;17.52;;
61617;SDS011;47518;51.776;9.370;2022-12-11T02:17:40;36.95;;;17.13;;
61617;SDS011;47518;51.776;9.370;2022-12-11T02:23:01;34.92;;;17.02;;
61617;SDS011;47518;51.776;9.370;2022-12-11T02:31:14;34.83;;;17.52;;
61617;SDS011;47518;51.776;9.370;2022-12-11T02:36:28;32.92;;;16.77;;
61617;SDS011;47518;51.776;9.370;2022-12-11T02:38:57;33.92;;;17.20;;
61617;SDS011;47518;51.776;9.370;2022-12-11T02:41:26;35.40;;;17.65;;
61617;SDS011;47518;51.776;9.370;2022-12-11T02:43:54;35.97;;;18.10;;
61617;SDS011;47518;51.776;9.370;2022-12-11T02:46:21;36.13;;;17.17;;
61617;SDS011;47518;51.776;9.370;2022-12-11T02:48:49;34.63;;;17.17;;
61617;SDS011;47518;51.776;9.370;2022-12-11T02:51:15;36.33;;;17.10;;
61617;SDS011;47518;51.776;9.370;2022-12-11T02:53:45;35.58;;;17.15;;
61617;SDS011;47518;51.776;9.370;2022-12-11T02:56:14;34.55;;;17.52;;
61617;SDS011;47518;51.776;9.370;2022-12-11T02:58:45;36.17;;;17.40;;
61617;SDS011;47518;51.776;9.370;2022-12-11T03:01:14;33.65;;;16.75;;
61617;SDS011;47518;51.776;9.370;2022-12-11T03:03:39;37.90;;;18.08;;
61617;SDS011;47518;51.776;9.370;2022-12-11T03:06:05;35.97;;;17.60;;
61617;SDS011;47518;51.776;9.370;2022-12-11T03:08:31;36.10;;;17.88;;
61617;SDS011;47518;51.776;9.370;2022-12-11T03:10:56;37.60;;;17.52;;
61617;SDS011;47518;51.776;9.370;2022-12-11T03:13:22;35.72;;;17.55;;
61617;SDS011;47518;51.776;9.370;2022-12-11T03:15:55;34.55;;;17.33;;
61617;SDS011;47518;51.776;9.370;2022-12-11T03:18:31;33.40;;;16.77;;
61617;SDS011;47518;51.776;9.370;2022-12-11T03:24:09;32.90;;;15.68;;
61617;SDS011;47518;51.776;9.370;2022-12-11T03:26:58;32.75;;;15.88;;
61617;SDS011;47518;51.776;9.370;2022-12-11T03:29:31;35.13;;;16.58;;
61617;SDS011;47518;51.776;9.370;2022-12-11T03:32:04;32.97;;;15.82;;
61617;SDS011;47518;51.776;9.370;2022-12-11T03:34:37;33.13;;;16.08;;
61617;SDS011;47518;51.776;9.370;2022-12-11T03:37:08;31.58;;;15.95;;
61617;SDS011;47518;51.776;9.370;2022-12-11T03:39:36;34.15;;;16.30;;
61617;SDS011;47518;51.776;9.370;2022-12-11T03:42:05;30.60;;;15.48;;
61617;SDS011;47518;51.776;9.370;2022-12-11T03:44:33;34.47;;;16.65;;
61617;SDS011;47518;51.776;9.370;2022-12-11T03:47:00;35.72;;;16.65;;
61617;SDS011;47518;51.776;9.370;2022-12-11T03:49:31;35.05;;;17.30;;
61617;SDS011;47518;51.776;9.370;2022-12-11T03:52:00;31.40;;;15.82;;
61617;SDS011;47518;51.776;9.370;2022-12-11T03:54:27;35.25;;;17.10;;
61617;SDS011;47518;51.776;9.370;2022-12-11T03:56:54;33.83;;;16.85;;
61617;SDS011;47518;51.776;9.370;2022-12-11T03:59:22;34.97;;;16.85;;
61617;SDS011;47518;51.776;9.370;2022-12-11T04:01:48;36.85;;;16.85;;
61617;SDS011;47518;51.776;9.370;2022-12-11T04:04:13;33.03;;;16.92;;
61617;SDS011;47518;51.776;9.370;2022-12-11T04:06:39;34.45;;;16.60;;
61617;SDS011;47518;51.776;9.370;2022-12-11T04:09:04;35.40;;;17.15;;
61617;SDS011;47518;51.776;9.370;2022-12-11T04:11:29;34.63;;;17.30;;
61617;SDS011;47518;51.776;9.370;2022-12-11T04:14:04;34.45;;;16.33;;
61617;SDS011;47518;51.776;9.370;2022-12-11T04:16:52;34.45;;;16.88;;
61617;SDS011;47518;51.776;9.370;2022-12-11T04:19:18;35.13;;;17.52;;
61617;SDS011;47518;51.776;9.370;2022-12-11T04:22:04;34.45;;;16.58;;
61617;SDS011;47518;51.776;9.370;2022-12-11T04:24:49;32.42;;;16.58;;
61617;SDS011;47518;51.776;9.370;2022-12-11T04:27:15;36.17;;;17.08;;
61617;SDS011;47518;51.776;9.370;2022-12-11T04:30:02;35.13;;;16.30;;
61617;SDS011;47518;51.776;9.370;2022-12-11T04:32:29;32.95;;;16.27;;
61617;SDS011;47518;51.776;9.370;2022-12-11T04:34:54;32.55;;;16.83;;
61617;SDS011;47518;51.776;9.370;2022-12-11T04:37:20;34.80;;;16.05;;
61617;SDS011;47518;51.776;9.370;2022-12-11T04:39:45;34.42;;;16.23;;
61617;SDS011;47518;51.776;9.370;2022-12-11T04:42:10;35.30;;;17.80;;
61617;SDS011;47518;51.776;9.370;2022-12-11T04:44:35;35.55;;;16.73;;
61617;SDS011;47518;51.776;9.370;2022-12-11T04:47:01;33.00;;;16.83;;
61617;SDS011;47518;51.776;9.370;2022-12-11T04:49:26;35.78;;;17.60;;
61617;SDS011;47518;51.776;9.370;2022-12-11T04:51:51;32.50;;;16.15;;
61617;SDS011;47518;51.776;9.370;2022-12-11T04:54:16;32.20;;;16.30;;
61617;SDS011;47518;51.776;9.370;2022-12-11T04:56:42;35.17;;;17.20;;
61617;SDS011;47518;51.776;9.370;2022-12-11T04:59:07;37.78;;;17.40;;
61617;SDS011;47518;51.776;9.370;2022-12-11T05:01:32;36.13;;;17.67;;
61617;SDS011;47518;51.776;9.370;2022-12-11T05:03:58;36.70;;;16.83;;
61617;SDS011;47518;51.776;9.370;2022-12-11T05:06:24;35.08;;;17.70;;
61617;SDS011;47518;51.776;9.370;2022-12-11T05:08:49;33.42;;;17.27;;
61617;SDS011;47518;51.776;9.370;2022-12-11T05:24:43;36.00;;;17.33;;
61617;SDS011;47518;51.776;9.370;2022-12-11T05:27:09;37.55;;;17.40;;
61617;SDS011;47518;51.776;9.370;2022-12-11T05:29:35;37.75;;;16.08;;
61617;SDS011;47518;51.776;9.370;2022-12-11T05:32:01;34.90;;;16.33;;
61617;SDS011;47518;51.776;9.370;2022-12-11T05:34:26;35.13;;;17.48;;
61617;SDS011;47518;51.776;9.370;2022-12-11T05:36:51;33.80;;;16.52;;
61617;SDS011;47518;51.776;9.370;2022-12-11T05:39:17;31.70;;;15.30;;
61617;SDS011;47518;51.776;9.370;2022-12-11T05:41:42;33.78;;;16.38;;
61617;SDS011;47518;51.776;9.370;2022-12-11T05:44:10;32.00;;;15.68;;
61617;SDS011;47518;51.776;9.370;2022-12-11T05:46:36;34.28;;;15.85;;
61617;SDS011;47518;51.776;9.370;2022-12-11T05:49:02;33.55;;;16.13;;
61617;SDS011;47518;51.776;9.370;2022-12-11T05:51:27;33.40;;;16.50;;
61617;SDS011;47518;51.776;9.370;2022-12-11T05:53:54;34.97;;;16.17;;
61617;SDS011;47518;51.776;9.370;2022-12-11T05:56:21;32.47;;;16.02;;
61617;SDS011;47518;51.776;9.370;2022-12-11T05:58:48;34.55;;;16.58;;
61617;SDS011;47518;51.776;9.370;2022-12-11T06:01:15;36.63;;;16.05;;
61617;SDS011;47518;51.776;9.370;2022-12-11T06:03:44;36.65;;;16.02;;
61617;SDS011;47518;51.776;9.370;2022-12-11T06:06:10;33.15;;;15.65;;
61617;SDS011;47518;51.776;9.370;2022-12-11T06:08:35;36.15;;;17.13;;
61617;SDS011;47518;51.776;9.370;2022-12-11T06:11:01;32.92;;;16.80;;
61617;SDS011;47518;51.776;9.370;2022-12-11T06:13:27;31.88;;;15.52;;
61617;SDS011;47518;51.776;9.370;2022-12-11T06:15:53;34.55;;;16.27;;
61617;SDS011;47518;51.776;9.370;2022-12-11T06:18:18;35.15;;;16.40;;
61617;SDS011;47518;51.776;9.370;2022-12-11T06:20:43;33.03;;;16.33;;
61617;SDS011;47518;51.776;9.370;2022-12-11T06:23:09;31.30;;;15.82;;
61617;SDS011;47518;51.776;9.370;2022-12-11T06:25:34;32.25;;;15.23;;
61617;SDS011;47518;51.776;9.370;2022-12-11T06:28:02;32.17;;;15.65;;
61617;SDS011;47518;51.776;9.370;2022-12-11T06:30:27;32.85;;;16.20;;
61617;SDS011;47518;51.776;9.370;2022-12-11T06:32:53;36.30;;;17.17;;
61617;SDS011;47518;51.776;9.370;2022-12-11T06:35:18;34.05;;;16.05;;
61617;SDS011;47518;51.776;9.370;2022-12-11T06:37:43;30.55;;;15.05;;
61617;SDS011;47518;51.776;9.370;2022-12-11T06:40:09;34.58;;;16.67;;
61617;SDS011;47518;51.776;9.370;2022-12-11T06:42:36;35.13;;;16.08;;
61617;SDS011;47518;51.776;9.370;2022-12-11T06:45:02;31.80;;;15.23;;
61617;SDS011;47518;51.776;9.370;2022-12-11T06:47:28;30.95;;;14.85;;
61617;SDS011;47518;51.776;9.370;2022-12-11T06:49:54;33.10;;;15.27;;
61617;SDS011;47518;51.776;9.370;2022-12-11T06:52:20;36.83;;;16.52;;
61617;SDS011;47518;51.776;9.370;2022-12-11T06:54:47;34.08;;;15.93;;
61617;SDS011;47518;51.776;9.370;2022-12-11T06:57:13;34.17;;;16.08;;
61617;SDS011;47518;51.776;9.370;2022-12-11T06:59:38;37.10;;;17.00;;
61617;SDS011;47518;51.776;9.370;2022-12-11T07:02:03;30.90;;;15.68;;
61617;SDS011;47518;51.776;9.370;2022-12-11T07:04:29;34.67;;;15.98;;
61617;SDS011;47518;51.776;9.370;2022-12-11T07:06:55;32.58;;;16.23;;
61617;SDS011;47518;51.776;9.370;2022-12-11T07:09:20;36.03;;;16.35;;
61617;SDS011;47518;51.776;9.370;2022-12-11T07:11:48;33.08;;;15.80;;
61617;SDS011;47518;51.776;9.370;2022-12-11T07:14:14;35.25;;;16.27;;
61617;SDS011;47518;51.776;9.370;2022-12-11T07:16:40;35.35;;;16.00;;
61617;SDS011;47518;51.776;9.370;2022-12-11T07:19:05;34.00;;;16.13;;
61617;SDS011;47518;51.776;9.370;2022-12-11T07:21:30;36.97;;;16.90;;
61617;SDS011;47518;51.776;9.370;2022-12-11T07:23:56;35.35;;;17.00;;
61617;SDS011;47518;51.776;9.370;2022-12-11T07:26:21;33.53;;;16.20;;
61617;SDS011;47518;51.776;9.370;2022-12-11T07:28:47;31.10;;;15.82;;
61617;SDS011;47518;51.776;9.370;2022-12-11T07:31:15;36.60;;;15.68;;
61617;SDS011;47518;51.776;9.370;2022-12-11T07:33:45;30.73;;;14.77;;
61617;SDS011;47518;51.776;9.370;2022-12-11T07:36:11;35.03;;;16.40;;
61617;SDS011;47518;51.776;9.370;2022-12-11T07:38:38;32.05;;;15.52;;
61617;SDS011;47518;51.776;9.370;2022-12-11T07:41:06;38.97;;;18.58;;
61617;SDS011;47518;51.776;9.370;2022-12-11T07:43:34;38.13;;;18.92;;
61617;SDS011;47518;51.776;9.370;2022-12-11T07:46:00;37.30;;;18.73;;
61617;SDS011;47518;51.776;9.370;2022-12-11T07:48:27;41.00;;;19.00;;
61617;SDS011;47518;51.776;9.370;2022-12-11T07:50:52;40.70;;;19.08;;
61617;SDS011;47518;51.776;9.370;2022-12-11T07:53:18;40.90;;;19.58;;
61617;SDS011;47518;51.776;9.370;2022-12-11T07:55:43;42.30;;;19.50;;
61617;SDS011;47518;51.776;9.370;2022-12-11T07:58:08;39.65;;;20.10;;
61617;SDS011;47518;51.776;9.370;2022-12-11T08:00:33;41.72;;;19.08;;
61617;SDS011;47518;51.776;9.370;2022-12-11T08:02:59;40.97;;;18.95;;
61617;SDS011;47518;51.776;9.370;2022-12-11T08:05:24;41.92;;;18.75;;
61617;SDS011;47518;51.776;9.370;2022-12-11T08:07:49;42.22;;;19.38;;
61617;SDS011;47518;51.776;9.370;2022-12-11T08:10:15;43.20;;;19.80;;
61617;SDS011;47518;51.776;9.370;2022-12-11T08:12:40;44.25;;;20.33;;
61617;SDS011;47518;51.776;9.370;2022-12-11T08:15:05;45.65;;;18.90;;
61617;SDS011;47518;51.776;9.370;2022-12-11T08:17:31;38.92;;;18.88;;
61617;SDS011;47518;51.776;9.370;2022-12-11T08:19:56;41.13;;;18.95;;
61617;SDS011;47518;51.776;9.370;2022-12-11T08:22:22;41.10;;;18.83;;
61617;SDS011;47518;51.776;9.370;2022-12-11T08:24:47;44.33;;;19.38;;
61617;SDS011;47518;51.776;9.370;2022-12-11T08:27:12;40.70;;;19.50;;
61617;SDS011;47518;51.776;9.370;2022-12-11T08:29:37;39.72;;;19.65;;
61617;SDS011;47518;51.776;9.370;2022-12-11T08:32:03;42.50;;;20.33;;
61617;SDS011;47518;51.776;9.370;2022-12-11T08:34:28;41.45;;;20.30;;
61617;SDS011;47518;51.776;9.370;2022-12-11T08:36:53;43.30;;;19.73;;
61617;SDS011;47518;51.776;9.370;2022-12-11T08:39:19;46.42;;;21.23;;
61617;SDS011;47518;51.776;9.370;2022-12-11T08:41:44;44.70;;;20.27;;
61617;SDS011;47518;51.776;9.370;2022-12-11T08:44:10;43.40;;;21.20;;
61617;SDS011;47518;51.776;9.370;2022-12-11T08:46:36;43.42;;;20.65;;
61617;SDS011;47518;51.776;9.370;2022-12-11T08:49:01;45.00;;;21.00;;
61617;SDS011;47518;51.776;9.370;2022-12-11T08:51:27;45.03;;;21.02;;
61617;SDS011;47518;51.776;9.370;2022-12-11T08:53:54;42.10;;;19.75;;
61617;SDS011;47518;51.776;9.370;2022-12-11T08:56:20;42.22;;;20.50;;
61617;SDS011;47518;51.776;9.370;2022-12-11T08:58:47;45.40;;;20.85;;
61617;SDS011;47518;51.776;9.370;2022-12-11T09:01:21;44.03;;;19.98;;
61617;SDS011;47518;51.776;9.370;2022-12-11T09:03:48;46.28;;;21.05;;
61617;SDS011;47518;51.776;9.370;2022-12-11T09:06:16;44.45;;;20.65;;
61617;SDS011;47518;51.776;9.370;2022-12-11T09:08:43;43.38;;;20.73;;
61617;SDS011;47518;51.776;9.370;2022-12-11T09:11:11;42.85;;;20.40;;
61617;SDS011;47518;51.776;9.370;2022-12-11T09:13:38;44.30;;;19.90;;
61617;SDS011;47518;51.776;9.370;2022-12-11T09:16:05;45.67;;;20.83;;
61617;SDS011;47518;51.776;9.370;2022-12-11T09:18:33;44.38;;;20.58;;
61617;SDS011;47518;51.776;9.370;2022-12-11T09:20:59;42.22;;;19.95;;
61617;SDS011;47518;51.776;9.370;2022-12-11T09:23:27;42.72;;;19.80;;
61617;SDS011;47518;51.776;9.370;2022-12-11T09:25:52;43.50;;;20.00;;
61617;SDS011;47518;51.776;9.370;2022-12-11T09:28:18;39.20;;;18.83;;
61617;SDS011;47518;51.776;9.370;2022-12-11T09:30:43;44.25;;;21.05;;
61617;SDS011;47518;51.776;9.370;2022-12-11T09:33:09;40.08;;;19.27;;
61617;SDS011;47518;51.776;9.370;2022-12-11T09:35:34;44.42;;;20.38;;
61617;SDS011;47518;51.776;9.370;2022-12-11T09:37:59;43.25;;;19.35;;
61617;SDS011;47518;51.776;9.370;2022-12-11T09:40:25;42.85;;;20.23;;
61617;SDS011;47518;51.776;9.370;2022-12-11T09:45:35;39.42;;;19.58;;
61617;SDS011;47518;51.776;9.370;2022-12-11T09:48:00;42.97;;;21.02;;
61617;SDS011;47518;51.776;9.370;2022-12-11T09:50:27;46.80;;;20.83;;
61617;SDS011;47518;51.776;9.370;2022-12-11T09:55:57;42.15;;;20.52;;
61617;SDS011;47518;51.776;9.370;2022-12-11T09:58:29;44.72;;;19.52;;
61617;SDS011;47518;51.776;9.370;2022-12-11T10:01:15;44.53;;;19.98;;
61617;SDS011;47518;51.776;9.370;2022-12-11T10:06:57;45.67;;;19.58;;
61617;SDS011;47518;51.776;9.370;2022-12-11T10:09:57;41.28;;;19.25;;
61617;SDS011;47518;51.776;9.370;2022-12-11T10:12:48;43.28;;;19.70;;
61617;SDS011;47518;51.776;9.370;2022-12-11T10:15:28;39.80;;;19.98;;
61617;SDS011;47518;51.776;9.370;2022-12-11T10:18:12;41.58;;;19.38;;
61617;SDS011;47518;51.776;9.370;2022-12-11T10:20:42;44.20;;;19.38;;
61617;SDS011;47518;51.776;9.370;2022-12-11T10:23:12;38.70;;;19.20;;
61617;SDS011;47518;51.776;9.370;2022-12-11T10:25:50;41.83;;;18.63;;
61617;SDS011;47518;51.776;9.370;2022-12-11T10:28:21;43.40;;;19.10;;
61617;SDS011;47518;51.776;9.370;2022-12-11T10:30:57;42.20;;;19.55;;
61617;SDS011;47518;51.776;9.370;2022-12-11T10:39:17;41.78;;;18.65;;
61617;SDS011;47518;51.776;9.370;2022-12-11T10:41:46;44.22;;;19.17;;
61617;SDS011;47518;51.776;9.370;2022-12-11T10:44:29;39.13;;;18.50;;
61617;SDS011;47518;51.776;9.370;2022-12-11T10:49:30;44.45;;;19.25;;
61617;SDS011;47518;51.776;9.370;2022-12-11T10:51:57;40.53;;;18.77;;
61617;SDS011;47518;51.776;9.370;2022-12-11T10:54:34;40.08;;;18.83;;
61617;SDS011;47518;51.776;9.370;2022-12-11T10:57:02;43.55;;;19.42;;
61617;SDS011;47518;51.776;9.370;2022-12-11T11:05:10;41.70;;;19.15;;
61617;SDS011;47518;51.776;9.370;2022-12-11T11:07:38;42.22;;;19.75;;
61617;SDS011;47518;51.776;9.370;2022-12-11T11:12:54;44.50;;;19.65;;
61617;SDS011;47518;51.776;9.370;2022-12-11T11:15:26;41.22;;;19.67;;
61617;SDS011;47518;51.776;9.370;2022-12-11T11:17:54;44.67;;;20.02;;
61617;SDS011;47518;51.776;9.370;2022-12-11T11:20:23;45.15;;;20.30;;
61617;SDS011;47518;51.776;9.370;2022-12-11T11:22:51;43.05;;;20.08;;
61617;SDS011;47518;51.776;9.370;2022-12-11T11:25:21;45.03;;;20.50;;
61617;SDS011;47518;51.776;9.370;2022-12-11T11:27:52;46.47;;;20.15;;
61617;SDS011;47518;51.776;9.370;2022-12-11T11:33:14;46.42;;;19.55;;
61617;SDS011;47518;51.776;9.370;2022-12-11T11:35:51;44.45;;;21.20;;
61617;SDS011;47518;51.776;9.370;2022-12-11T11:38:21;45.72;;;21.15;;
61617;SDS011;47518;51.776;9.370;2022-12-11T11:40:54;47.15;;;20.85;;
61617;SDS011;47518;51.776;9.370;2022-12-11T11:46:11;50.20;;;21.20;;
61617;SDS011;47518;51.776;9.370;2022-12-11T11:51:29;45.20;;;20.38;;
61617;SDS011;47518;51.776;9.370;2022-12-11T11:56:26;44.25;;;19.17;;
61617;SDS011;47518;51.776;9.370;2022-12-11T11:59:00;44.88;;;19.55;;
61617;SDS011;47518;51.776;9.370;2022-12-11T12:01:31;46.35;;;19.95;;
61617;SDS011;47518;51.776;9.370;2022-12-11T12:03:56;45.50;;;20.42;;
61617;SDS011;47518;51.776;9.370;2022-12-11T12:06:41;45.53;;;20.30;;
61617;SDS011;47518;51.776;9.370;2022-12-11T12:21:12;48.67;;;20.70;;
61617;SDS011;47518;51.776;9.370;2022-12-11T12:23:51;45.72;;;19.75;;
61617;SDS011;47518;51.776;9.370;2022-12-11T12:26:40;48.08;;;21.67;;
61617;SDS011;47518;51.776;9.370;2022-12-11T12:32:07;46.47;;;20.55;;
61617;SDS011;47518;51.776;9.370;2022-12-11T12:37:33;44.53;;;20.48;;
61617;SDS011;47518;51.776;9.370;2022-12-11T12:40:13;47.80;;;20.70;;
61617;SDS011;47518;51.776;9.370;2022-12-11T12:45:47;44.13;;;19.45;;
61617;SDS011;47518;51.776;9.370;2022-12-11T12:48:31;47.28;;;20.77;;
61617;SDS011;47518;51.776;9.370;2022-12-11T12:50:56;48.58;;;20.65;;
61617;SDS011;47518;51.776;9.370;2022-12-11T12:53:23;44.28;;;18.90;;
61617;SDS011;47518;51.776;9.370;2022-12-11T12:55:52;43.08;;;19.55;;
61617;SDS011;47518;51.776;9.370;2022-12-11T13:01:18;43.60;;;18.67;;
61617;SDS011;47518;51.776;9.370;2022-12-11T13:06:39;43.58;;;19.00;;
61617;SDS011;47518;51.776;9.370;2022-12-11T13:09:09;45.05;;;19.08;;
61617;SDS011;47518;51.776;9.370;2022-12-11T13:11:39;43.63;;;18.60;;
61617;SDS011;47518;51.776;9.370;2022-12-11T13:14:06;39.58;;;17.30;;
61617;SDS011;47518;51.776;9.370;2022-12-11T13:16:48;42.95;;;17.33;;
61617;SDS011;47518;51.776;9.370;2022-12-11T13:27:40;36.47;;;15.93;;
61617;SDS011;47518;51.776;9.370;2022-12-11T13:33:01;38.25;;;15.70;;
61617;SDS011;47518;51.776;9.370;2022-12-11T13:35:29;39.03;;;15.73;;
61617;SDS011;47518;51.776;9.370;2022-12-11T13:38:00;42.42;;;17.50;;
61617;SDS011;47518;51.776;9.370;2022-12-11T13:40:35;40.42;;;16.17;;
61617;SDS011;47518;51.776;9.370;2022-12-11T13:43:05;43.00;;;16.35;;
61617;SDS011;47518;51.776;9.370;2022-12-11T13:51:05;39.72;;;16.40;;
61617;SDS011;47518;51.776;9.370;2022-12-11T13:53:31;45.42;;;17.42;;
61617;SDS011;47518;51.776;9.370;2022-12-11T13:55:58;40.00;;;15.95;;
61617;SDS011;47518;51.776;9.370;2022-12-11T13:58:29;43.13;;;16.75;;
61617;SDS011;47518;51.776;9.370;2022-12-11T14:01:07;38.33;;;16.15;;
61617;SDS011;47518;51.776;9.370;2022-12-11T14:03:38;39.67;;;15.45;;
61617;SDS011;47518;51.776;9.370;2022-12-11T14:06:04;37.50;;;15.77;;
61617;SDS011;47518;51.776;9.370;2022-12-11T14:08:35;41.30;;;16.50;;
61617;SDS011;47518;51.776;9.370;2022-12-11T14:11:02;43.45;;;16.27;;
61617;SDS011;47518;51.776;9.370;2022-12-11T14:13:31;43.90;;;16.13;;
61617;SDS011;47518;51.776;9.370;2022-12-11T14:15:59;45.80;;;16.85;;
61617;SDS011;47518;51.776;9.370;2022-12-11T14:18:26;42.50;;;15.85;;
61617;SDS011;47518;51.776;9.370;2022-12-11T14:20:56;40.20;;;16.33;;
61617;SDS011;47518;51.776;9.370;2022-12-11T14:23:24;35.92;;;15.07;;
61617;SDS011;47518;51.776;9.370;2022-12-11T14:25:52;40.90;;;16.38;;
61617;SDS011;47518;51.776;9.370;2022-12-11T14:28:19;39.05;;;15.30;;
61617;SDS011;47518;51.776;9.370;2022-12-11T14:30:46;39.47;;;16.35;;
61617;SDS011;47518;51.776;9.370;2022-12-11T14:33:15;44.03;;;15.90;;
61617;SDS011;47518;51.776;9.370;2022-12-11T14:35:44;39.22;;;15.15;;
61617;SDS011;47518;51.776;9.370;2022-12-11T14:41:00;40.17;;;15.55;;
61617;SDS011;47518;51.776;9.370;2022-12-11T14:43:41;41.27;;;15.93;;
61617;SDS011;47518;51.776;9.370;2022-12-11T14:46:12;38.15;;;15.57;;
61617;SDS011;47518;51.776;9.370;2022-12-11T14:48:47;40.55;;;15.52;;
61617;SDS011;47518;51.776;9.370;2022-12-11T14:51:16;38.95;;;15.20;;
61617;SDS011;47518;51.776;9.370;2022-12-11T14:53:44;42.70;;;15.82;;
61617;SDS011;47518;51.776;9.370;2022-12-11T14:56:16;41.63;;;15.88;;
61617;SDS011;47518;51.776;9.370;2022-12-11T14:58:49;39.50;;;16.50;;
61617;SDS011;47518;51.776;9.370;2022-12-11T15:01:27;42.55;;;16.10;;
61617;SDS011;47518;51.776;9.370;2022-12-11T15:04:02;43.78;;;16.10;;
61617;SDS011;47518;51.776;9.370;2022-12-11T15:06:31;40.85;;;15.30;;
61617;SDS011;47518;51.776;9.370;2022-12-11T15:12:17;38.22;;;14.82;;
61617;SDS011;47518;51.776;9.370;2022-12-11T15:27:54;39.92;;;15.02;;
61617;SDS011;47518;51.776;9.370;2022-12-11T15:35:51;40.38;;;16.40;;
61617;SDS011;47518;51.776;9.370;2022-12-11T15:41:10;39.35;;;16.08;;
61617;SDS011;47518;51.776;9.370;2022-12-11T15:43:38;42.72;;;16.35;;
61617;SDS011;47518;51.776;9.370;2022-12-11T15:46:04;46.78;;;17.17;;
61617;SDS011;47518;51.776;9.370;2022-12-11T15:48:29;42.72;;;16.85;;
61617;SDS011;47518;51.776;9.370;2022-12-11T15:50:55;46.17;;;17.83;;
61617;SDS011;47518;51.776;9.370;2022-12-11T15:53:20;39.63;;;16.27;;
61617;SDS011;47518;51.776;9.370;2022-12-11T15:55:46;40.85;;;16.45;;
61617;SDS011;47518;51.776;9.370;2022-12-11T15:58:14;44.88;;;16.80;;
61617;SDS011;47518;51.776;9.370;2022-12-11T16:00:42;40.05;;;16.02;;
61617;SDS011;47518;51.776;9.370;2022-12-11T16:03:10;44.58;;;16.48;;
61617;SDS011;47518;51.776;9.370;2022-12-11T16:05:37;43.17;;;16.63;;
61617;SDS011;47518;51.776;9.370;2022-12-11T16:08:02;46.22;;;16.80;;
61617;SDS011;47518;51.776;9.370;2022-12-11T16:10:28;47.78;;;16.75;;
61617;SDS011;47518;51.776;9.370;2022-12-11T16:12:53;45.20;;;16.70;;
61617;SDS011;47518;51.776;9.370;2022-12-11T16:15:23;44.22;;;16.23;;
61617;SDS011;47518;51.776;9.370;2022-12-11T16:17:57;43.70;;;16.63;;
61617;SDS011;47518;51.776;9.370;2022-12-11T16:20:23;43.55;;;15.23;;
61617;SDS011;47518;51.776;9.370;2022-12-11T16:22:48;40.78;;;15.73;;
61617;SDS011;47518;51.776;9.370;2022-12-11T16:25:14;44.55;;;16.40;;
61617;SDS011;47518;51.776;9.370;2022-12-11T16:27:39;41.05;;;16.40;;
61617;SDS011;47518;51.776;9.370;2022-12-11T16:30:04;45.58;;;17.30;;
61617;SDS011;47518;51.776;9.370;2022-12-11T16:32:30;44.60;;;16.90;;
61617;SDS011;47518;51.776;9.370;2022-12-11T16:34:57;44.35;;;16.15;;
61617;SDS011;47518;51.776;9.370;2022-12-11T16:37:24;43.05;;;16.55;;
61617;SDS011;47518;51.776;9.370;2022-12-11T16:39:49;48.15;;;17.35;;
61617;SDS011;47518;51.776;9.370;2022-12-11T16:42:15;46.70;;;16.80;;
61617;SDS011;47518;51.776;9.370;2022-12-11T16:44:40;50.47;;;17.17;;
61617;SDS011;47518;51.776;9.370;2022-12-11T16:47:06;47.92;;;17.38;;